Skip Navigation Links
NOAA logo - Click to go to the NOAA homepage
NOAA's National Weather Service
Alaska Aviation Weather Unit
  NWS logo - Click to go to the NWS homepage
Left Navbar Graphic     19 AKDT = 03 GMT

   
NOAA is celebrating 200 years of science, service, and stewardship. Visit the NOAA 200th celebration Web site to learn more.
USA.gov is the U.S. Government's official Web portal to all Federal, state and local government Web resources and services.
Facebook
NWS on Facebook

Important Change Regarding the AAWU Web Presence

 

Over the last several months, the AAWU has been working to navigate its webpages to a nationally supported server. Security, as well as other needs, have necessitated the change.  In the process, we have made an effort to enhance the functionality of our website, as well as some of our products. As of June 20, 2017, aawu.arh.noaa.gov will be discontinued. The new AAWU web address is weather.gov/aawu. It is now live and will run in-parallel with the old site until it is discontinued. Please send any feedback or questions regarding the new webpages to nws.ar.aawu.webauthors@noaa.gov.  Thank you for your patience during this time of transition.
AAWU Home :: Display TAF Add Bookmark
METAR PAKK 242116Z AUTO 19007KT 10SM BKN012 OVC019 03/M06 A2949 RMK
 AO1 P0001=

METAR PAKK 242136Z AUTO 20006KT 10SM OVC014 03/M06 A2950 RMK AO1
     P0001=

METAR PAKK 242156Z AUTO 20008KT 8SM SCT010 BKN014 OVC019 03/M06
 A2950 RMK AO1 P0001=

METAR PAKK 242216Z AUTO 21012G16KT 10SM FEW010 SCT016 BKN032 04/M05
     A2950 RMK AO1 P0001=

METAR PAKK 242236Z AUTO 20009G17KT 10SM FEW012 SCT020 BKN029 04/M04
     A2951 RMK AO1 P0001=

METAR PAKK 242256Z AUTO 19009KT 10SM SCT010 BKN020 OVC036 04/M06 A2951
     RMK AO1 P0001=

METAR PAKK 242316Z AUTO 19008KT 1 3/4SM BKN004 OVC008 03/M06 A2952 RMK
     AO1=

METAR PAKK 242336Z AUTO 19008KT 10SM BKN004 BKN009 OVC013 03/M07 A2953
     RMK AO1=

METAR PAKK 242356Z AUTO 20011KT 7SM BKN004 OVC012 04/M05 A2953 RMK AO1
     60010 10040 20030 400800030 52014=

METAR PAKK 250016Z AUTO 20013G17KT 10SM FEW003 SCT007 OVC026 04/M05
     A2954 RMK AO1=

METAR PAKK 250036Z AUTO 20012G18KT 10SM BKN008 OVC028 03/M06 A2955 RMK
     AO1=

METAR PAKK 250056Z AUTO 20011G16KT 10SM OVC012 03/M07 A2955 RMK AO1=

METAR PAKK 250116Z AUTO 19012G17KT 10SM OVC014 03/M07 A2956 RMK AO1=

METAR PAKK 250136Z AUTO 19011G17KT 10SM OVC016 03/M07 A2956 RMK AO1=

METAR PAKK 250156Z AUTO 20011G17KT 10SM OVC018 03/M07 A2957 RMK AO1=

METAR PAKK 250216Z AUTO 20012G16KT 10SM OVC018 03/M07 A2958 RMK AO1=

PAKK 250236Z AUTO 19011KT 10SM BKN020 OVC026 03/M08 A2958 RMK
     AO1=

METAR PAKK 250256Z AUTO 20011KT 10SM BKN021 OVC026 03/M07 A2959 RMK
     AO1=


NOAA's National Weather Service
Alaska Aviation Weather Unit
6930 Sand Lake Road
Anchorage, AK 99502-1845
Disclaimer
Credits
Glossary
Privacy Policy
About Us
Career Opportunities
Contact AAWU Internet Services Site last modified: April, 17th 2012